Time;durP1;ratioP1;P1;durP2;ratioP2;P2;SDS_P1;SDS_P2;PMS_P1;PMS_P2;Temp;Humidity;BMP_temperature;BMP_pressure;BME280_temperature;BME280_humidity;BME280_pressure;Samples;Min_cycle;Max_cycle;Signal;HPM_P1;HPM_P2
2022/04/03 00:01:12;;;;;;;5.45;3.13;;;;;;;11.36;100.00;99948.63;5094254;28;20443;-77
2022/04/03 00:03:58;;;;;;;5.70;3.00;;;;;;;11.28;100.00;99953.25;5108731;28;20043;-76
2022/04/03 00:06:44;;;;;;;4.70;2.85;;;;;;;11.11;100.00;99955.56;5108373;28;20024;-77
2022/04/03 00:09:30;;;;;;;4.72;2.55;;;;;;;11.28;100.00;99948.88;5107477;28;20020;-76
2022/04/03 00:12:15;;;;;;;4.25;2.80;;;;;;;11.34;100.00;99947.84;5092254;28;20103;-77
2022/04/03 00:15:01;;;;;;;4.18;2.22;;;;;;;11.15;100.00;99958.06;5105752;28;20110;-77
2022/04/03 00:17:47;;;;;;;4.60;2.58;;;;;;;11.24;100.00;99965.63;5105983;28;20108;-76
2022/04/03 00:20:36;;;;;;;5.57;2.92;;;;;;;11.23;100.00;99968.28;5107069;28;20099;-76
2022/04/03 00:23:23;;;;;;;5.63;2.83;;;;;;;11.21;100.00;99981.44;5097038;28;20031;-76
2022/04/03 00:26:09;;;;;;;5.13;2.80;;;;;;;11.19;100.00;99985.03;5082757;28;20016;-77
2022/04/03 00:28:55;;;;;;;4.07;2.60;;;;;;;11.06;100.00;99987.19;5081961;28;20043;-78
2022/04/03 00:31:40;;;;;;;5.35;2.42;;;;;;;10.99;100.00;99993.50;5082619;28;20039;-77
2022/04/03 00:34:26;;;;;;;3.03;2.40;;;;;;;10.87;100.00;100004.38;5081777;28;20444;-78
2022/04/03 00:37:12;;;;;;;4.78;2.70;;;;;;;10.93;100.00;99993.69;5095615;28;20028;-78
2022/04/03 00:39:58;;;;;;;3.45;2.45;;;;;;;10.79;100.00;99998.50;5082220;28;20043;-78
2022/04/03 00:42:43;;;;;;;3.97;2.40;;;;;;;10.99;100.00;99990.91;5087316;28;20027;-74
2022/04/03 00:45:29;;;;;;;4.18;2.17;;;;;;;10.98;100.00;99983.06;5106655;28;20024;-76
2022/04/03 00:48:15;;;;;;;6.25;2.40;;;;;;;11.14;100.00;99982.56;5102302;28;20020;-77
2022/04/03 00:51:01;;;;;;;4.07;2.60;;;;;;;10.54;100.00;99989.66;5102140;28;20360;-78
2022/04/03 00:53:47;;;;;;;6.03;2.40;;;;;;;10.60;100.00;99986.84;5087628;28;20054;-76
2022/04/03 00:56:33;;;;;;;4.80;2.42;;;;;;;10.75;100.00;99991.63;5103745;28;20051;-77
2022/04/03 00:59:18;;;;;;;3.15;2.42;;;;;;;10.78;100.00;99986.31;5090284;28;20455;-76
2022/04/03 01:02:04;;;;;;;5.07;2.22;;;;;;;10.65;100.00;99986.72;5089110;28;20110;-77
2022/04/03 01:04:50;;;;;;;3.97;2.30;;;;;;;10.56;100.00;99994.84;5088603;28;20415;-77
2022/04/03 01:07:36;;;;;;;3.60;2.33;;;;;;;10.74;100.00;99987.31;5105085;28;20440;-76
2022/04/03 01:10:22;;;;;;;4.05;2.40;;;;;;;10.84;100.00;99991.34;5098190;28;20035;-77
2022/04/03 01:13:10;;;;;;;4.13;2.28;;;;;;;10.47;100.00;99982.00;5084085;28;20090;-77
2022/04/03 01:16:00;;;;;;;4.28;2.50;;;;;;;10.57;100.00;99994.78;5100376;28;20047;-78
2022/04/03 01:18:46;;;;;;;5.55;2.25;;;;;;;10.17;100.00;99983.72;5098878;28;20024;-76
2022/04/03 01:21:33;;;;;;;7.13;2.70;;;;;;;10.49;100.00;99980.19;5098365;28;20035;-77
2022/04/03 01:24:23;;;;;;;4.43;2.20;;;;;;;10.19;100.00;99979.31;5096392;28;20039;-77
2022/04/03 01:27:10;;;;;;;4.43;2.45;;;;;;;10.21;100.00;99995.84;5081089;28;20032;-77
2022/04/03 01:29:57;;;;;;;5.22;2.70;;;;;;;9.96;100.00;99994.72;5094965;28;20031;-77
2022/04/03 01:32:46;;;;;;;5.60;2.85;;;;;;;10.09;100.00;99991.78;5095861;28;20028;-77
2022/04/03 01:35:32;;;;;;;4.38;2.60;;;;;;;10.16;100.00;99992.47;5081056;28;20114;-77
2022/04/03 01:38:17;;;;;;;6.78;2.63;;;;;;;9.97;100.00;99992.06;5080853;28;20089;-78
2022/04/03 01:41:03;;;;;;;5.68;2.42;;;;;;;10.04;100.00;99990.16;5095406;28;20551;-77
2022/04/03 01:43:49;;;;;;;4.30;2.50;;;;;;;10.06;100.00;99993.63;5080500;28;20173;-78
2022/04/03 01:46:36;;;;;;;3.40;2.50;;;;;;;10.43;100.00;99994.31;5095176;28;20356;-78
2022/04/03 01:49:22;;;;;;;4.45;2.83;;;;;;;9.88;100.00;99994.94;5095454;28;20024;-77
2022/04/03 01:52:08;;;;;;;4.00;2.58;;;;;;;9.85;100.00;99994.16;5080806;28;20123;-77
2022/04/03 01:54:53;;;;;;;4.40;2.60;;;;;;;9.96;100.00;99987.75;5094119;28;20337;-77
2022/04/03 01:57:39;;;;;;;4.32;2.70;;;;;;;10.16;100.00;99994.25;5079875;28;20081;-78
2022/04/03 02:00:26;;;;;;;3.60;2.50;;;;;;;9.91;100.00;100001.84;5081060;28;20036;-77
2022/04/03 02:03:12;;;;;;;7.88;2.95;;;;;;;9.96;100.00;99985.13;5094648;28;20452;-78
2022/04/03 02:05:58;;;;;;;6.32;2.58;;;;;;;10.14;100.00;99992.50;5080757;28;20468;-77
2022/04/03 02:08:43;;;;;;;5.38;3.08;;;;;;;9.67;100.00;99987.66;5095046;28;20089;-78
2022/04/03 02:11:29;;;;;;;5.65;2.70;;;;;;;10.10;100.00;99987.41;5095088;28;20039;-78
2022/04/03 02:14:15;;;;;;;5.50;2.60;;;;;;;10.17;100.00;99996.81;5079565;28;20071;-78
2022/04/03 02:17:01;;;;;;;5.63;2.78;;;;;;;10.30;100.00;99992.97;5080715;28;20031;-78
2022/04/03 02:19:47;;;;;;;5.30;2.60;;;;;;;10.31;100.00;99991.19;5098517;28;20047;-77
2022/04/03 02:22:32;;;;;;;4.85;2.38;;;;;;;10.35;100.00;99995.44;5098885;28;20028;-78
2022/04/03 02:25:18;;;;;;;6.38;2.55;;;;;;;9.96;100.00;99990.34;5083323;28;20031;-77
2022/04/03 02:28:04;;;;;;;4.22;2.30;;;;;;;10.13;100.00;99989.97;5084288;28;20024;-77
2022/04/03 02:30:50;;;;;;;4.35;2.50;;;;;;;10.28;100.00;99989.50;5098462;28;20052;-77
2022/04/03 02:33:36;;;;;;;3.92;2.28;;;;;;;10.27;100.00;100000.88;5084322;28;20429;-77
2022/04/03 02:36:22;;;;;;;2.17;1.67;;;;;;;10.25;100.00;99994.84;5083246;28;20543;-78
2022/04/03 02:39:07;;;;;;;2.30;1.80;;;;;;;10.08;100.00;99989.19;5098922;28;20116;-77
2022/04/03 02:41:53;;;;;;;3.75;2.05;;;;;;;10.09;100.00;99991.78;5098428;28;20119;-78
2022/04/03 02:44:39;;;;;;;3.35;2.05;;;;;;;10.12;100.00;99990.84;5083801;28;20059;-77
2022/04/03 02:47:25;;;;;;;2.47;1.90;;;;;;;10.14;100.00;99982.03;5097641;28;20028;-78
2022/04/03 02:50:12;;;;;;;5.70;2.20;;;;;;;10.14;100.00;99984.66;5097590;28;20042;-78
2022/04/03 02:52:57;;;;;;;4.68;2.22;;;;;;;9.79;100.00;99989.09;5098029;28;20039;-77
2022/04/03 02:55:43;;;;;;;3.75;2.00;;;;;;;10.09;100.00;99981.31;5083482;28;20024;-77
2022/04/03 02:58:29;;;;;;;3.97;1.95;;;;;;;10.31;100.00;99978.09;5094329;28;20043;-76
2022/04/03 03:01:14;;;;;;;5.28;2.53;;;;;;;10.25;100.00;99980.91;5104818;28;20059;-78
2022/04/03 03:04:00;;;;;;;3.70;2.20;;;;;;;10.18;100.00;99982.81;5097724;28;20038;-77
2022/04/03 03:06:46;;;;;;;4.60;2.20;;;;;;;10.51;100.00;99981.88;5097345;28;20111;-77
2022/04/03 03:09:32;;;;;;;4.03;2.55;;;;;;;10.40;100.00;99980.47;5098139;28;20360;-77
2022/04/03 03:12:18;;;;;;;4.32;2.40;;;;;;;10.31;100.00;99981.56;5097546;28;20117;-77
2022/04/03 03:15:04;;;;;;;3.13;2.00;;;;;;;10.00;100.00;99980.66;5097509;28;20027;-78
2022/04/03 03:17:50;;;;;;;3.28;2.22;;;;;;;10.27;100.00;99982.56;5082535;28;20024;-77
2022/04/03 03:20:36;;;;;;;6.03;2.15;;;;;;;10.37;100.00;99977.94;5081903;28;20065;-78
2022/04/03 03:23:22;;;;;;;5.18;2.28;;;;;;;10.01;100.00;99972.78;5097489;28;20066;-78
2022/04/03 03:26:08;;;;;;;2.90;2.15;;;;;;;9.87;100.00;99974.03;5083725;28;20016;-77
2022/04/03 03:28:54;;;;;;;3.13;2.40;;;;;;;9.95;100.00;99983.41;5095751;28;20110;-77
2022/04/03 03:31:40;;;;;;;6.10;2.65;;;;;;;10.20;100.00;99993.25;5081279;28;20039;-78
2022/04/03 03:34:26;;;;;;;3.55;2.33;;;;;;;10.04;100.00;99992.75;5096461;28;20466;-78
2022/04/03 03:37:12;;;;;;;4.05;2.75;;;;;;;9.87;100.00;99997.59;5081540;28;20040;-78
2022/04/03 03:39:58;;;;;;;6.45;2.50;;;;;;;9.62;100.00;99994.72;5082657;28;20062;-78
2022/04/03 03:42:44;;;;;;;5.57;2.50;;;;;;;9.97;100.00;99997.31;5096699;28;20334;-78
2022/04/03 03:45:30;;;;;;;4.30;2.40;;;;;;;9.97;100.00;99999.09;5096835;28;20070;-78
2022/04/03 03:48:16;;;;;;;5.38;2.53;;;;;;;9.89;100.00;99998.44;5096522;28;20035;-77
2022/04/03 03:51:02;;;;;;;3.05;2.33;;;;;;;10.01;100.00;100004.19;5096541;28;20153;-78
2022/04/03 03:53:48;;;;;;;3.90;2.40;;;;;;;9.97;100.00;100005.16;5082591;28;20054;-78
2022/04/03 03:56:34;;;;;;;3.75;2.30;;;;;;;9.85;100.00;100020.31;5096254;28;20020;-78
2022/04/03 03:59:20;;;;;;;4.38;2.50;;;;;;;9.92;100.00;100020.13;5081614;28;20487;-77
2022/04/03 04:02:05;;;;;;;9.52;2.53;;;;;;;9.64;100.00;100023.47;5082033;28;20120;-77
2022/04/03 04:04:51;;;;;;;6.80;2.53;;;;;;;9.89;100.00;100019.34;5081306;28;20032;-77
2022/04/03 04:07:41;;;;;;;4.68;2.70;;;;;;;9.60;100.00;100024.44;5080545;28;20055;-77
2022/04/03 04:10:27;;;;;;;4.28;2.70;;;;;;;9.35;100.00;100020.69;5096103;28;20073;-77
2022/04/03 04:13:13;;;;;;;3.70;2.42;;;;;;;9.31;100.00;100021.66;5095324;28;20054;-78
2022/04/03 04:15:59;;;;;;;5.05;2.75;;;;;;;9.10;100.00;100020.41;5096122;28;20103;-78
2022/04/03 04:18:44;;;;;;;4.78;2.72;;;;;;;9.42;100.00;100020.53;5096090;28;20020;-78
2022/04/03 04:21:30;;;;;;;6.22;2.60;;;;;;;9.42;100.00;100027.50;5080850;28;20020;-77
2022/04/03 04:24:16;;;;;;;5.70;3.10;;;;;;;9.29;100.00;100033.91;5095882;28;20201;-77
2022/04/03 04:27:02;;;;;;;6.53;2.63;;;;;;;9.42;100.00;100035.34;5096441;28;20020;-78
2022/04/03 04:29:48;;;;;;;3.65;2.67;;;;;;;9.60;100.00;100040.13;5096379;28;20016;-76
2022/04/03 04:32:34;;;;;;;4.78;3.15;;;;;;;9.56;100.00;100041.09;5095935;28;20082;-78
2022/04/03 04:35:20;;;;;;;4.32;2.95;;;;;;;9.38;100.00;100046.78;5095494;28;20030;-77
2022/04/03 04:38:05;;;;;;;5.72;3.20;;;;;;;9.46;100.00;100047.44;5081203;28;20360;-78
2022/04/03 04:40:51;;;;;;;5.68;3.10;;;;;;;9.43;100.00;100048.38;5095353;28;20031;-77
2022/04/03 04:43:37;;;;;;;6.00;3.03;;;;;;;9.52;100.00;100044.69;5094991;28;20024;-76
2022/04/03 04:46:23;;;;;;;4.97;2.88;;;;;;;9.78;100.00;100043.13;5096226;28;20122;-78
2022/04/03 04:49:08;;;;;;;7.45;3.38;;;;;;;9.96;100.00;100044.44;5094856;28;20031;-77
2022/04/03 04:51:54;;;;;;;4.25;3.03;;;;;;;9.89;100.00;100043.75;5095608;28;20066;-77
2022/04/03 04:54:40;;;;;;;5.03;3.13;;;;;;;9.95;100.00;100050.56;5095703;28;20028;-77
2022/04/03 04:57:25;;;;;;;6.07;3.15;;;;;;;9.89;100.00;100042.91;5095763;28;20024;-79
2022/04/03 05:00:13;;;;;;;4.30;2.80;;;;;;;10.12;100.00;100055.41;5094691;28;20024;-76
2022/04/03 05:02:59;;;;;;;5.03;3.03;;;;;;;9.97;100.00;100059.25;5094817;28;20104;-78
2022/04/03 05:05:46;;;;;;;5.07;3.17;;;;;;;10.02;100.00;100070.47;5094979;28;20028;-77
2022/04/03 05:08:31;;;;;;;5.63;3.00;;;;;;;9.87;100.00;100066.47;5095260;28;20089;-77
2022/04/03 05:11:17;;;;;;;5.57;3.10;;;;;;;9.97;100.00;100074.97;5079765;28;20032;-77
2022/04/03 05:14:03;;;;;;;5.68;3.05;;;;;;;9.94;100.00;100083.72;5098162;28;20510;-75
2022/04/03 05:16:49;;;;;;;4.25;2.95;;;;;;;9.82;100.00;100081.41;5100546;28;20032;-77
2022/04/03 05:19:36;;;;;;;4.80;2.90;;;;;;;10.04;100.00;100087.84;5095882;28;20066;-78
2022/04/03 05:22:23;;;;;;;4.70;3.17;;;;;;;9.99;100.00;100088.84;5080677;28;20181;-79
2022/04/03 05:25:11;;;;;;;5.03;2.90;;;;;;;9.86;100.00;100103.13;5080248;28;20039;-76
2022/04/03 05:27:57;;;;;;;6.25;3.17;;;;;;;9.82;100.00;100088.41;5094739;28;20051;-77
2022/04/03 05:30:42;;;;;;;5.15;3.20;;;;;;;9.99;100.00;100091.47;5094418;28;20085;-77
2022/04/03 05:33:28;;;;;;;5.30;3.25;;;;;;;10.13;100.00;100087.63;5080207;28;20020;-77
2022/04/03 05:36:14;;;;;;;10.48;3.58;;;;;;;10.14;100.00;100083.28;5094247;28;20031;-77
2022/04/03 05:39:04;;;;;;;6.18;3.65;;;;;;;10.09;100.00;100095.63;5080314;28;20081;-78
2022/04/03 05:41:54;;;;;;;4.97;3.20;;;;;;;10.30;100.00;100088.97;5079704;28;20106;-78
2022/04/03 05:44:40;;;;;;;6.05;3.47;;;;;;;10.45;100.00;100092.00;5079869;28;20062;-78
2022/04/03 05:47:26;;;;;;;7.15;3.60;;;;;;;10.32;100.00;100093.25;5093212;28;20425;-78
2022/04/03 05:50:14;;;;;;;5.63;4.10;;;;;;;10.03;100.00;100101.84;5079930;28;20028;-78
2022/04/03 05:53:00;;;;;;;14.20;10.38;;;;;;;10.11;100.00;100101.66;5094969;28;20038;-77
2022/04/03 05:55:47;;;;;;;7.20;3.97;;;;;;;10.34;100.00;100107.16;5093983;28;20444;-78
2022/04/03 05:58:33;;;;;;;6.22;3.92;;;;;;;10.37;100.00;100101.84;5094377;28;20043;-78
2022/04/03 06:01:19;;;;;;;7.60;3.90;;;;;;;10.28;100.00;100104.69;5092990;28;20371;-78
2022/04/03 06:04:05;;;;;;;7.00;4.50;;;;;;;10.43;100.00;100109.53;5080019;28;20092;-78
2022/04/03 06:06:51;;;;;;;7.60;4.57;;;;;;;10.52;100.00;100111.91;5094471;28;20028;-77
2022/04/03 06:09:37;;;;;;;6.05;4.22;;;;;;;10.39;100.00;100123.63;5079856;28;20028;-77
2022/04/03 06:12:23;;;;;;;6.93;4.85;;;;;;;10.47;100.00;100123.41;5094301;28;20143;-77
2022/04/03 06:15:09;;;;;;;7.38;4.43;;;;;;;10.47;100.00;100116.41;5094462;28;20039;-78
2022/04/03 06:17:55;;;;;;;11.15;6.70;;;;;;;10.86;100.00;100123.19;5079524;28;20043;-77
2022/04/03 06:20:42;;;;;;;7.22;4.75;;;;;;;10.63;100.00;100129.94;5094740;28;20426;-78
2022/04/03 06:23:27;;;;;;;8.90;5.63;;;;;;;10.96;100.00;100137.75;5079055;28;20053;-78
2022/04/03 06:26:13;;;;;;;6.65;4.80;;;;;;;10.96;100.00;100143.00;5092892;28;20115;-77
2022/04/03 06:28:59;;;;;;;6.55;4.85;;;;;;;11.06;100.00;100144.47;5078972;28;20512;-78
2022/04/03 06:31:44;;;;;;;9.10;5.15;;;;;;;11.35;100.00;100149.72;5093631;28;20352;-79
2022/04/03 06:34:30;;;;;;;8.65;6.20;;;;;;;11.53;100.00;100133.41;5079868;28;20451;-78
2022/04/03 06:37:16;;;;;;;16.63;10.20;;;;;;;11.97;100.00;100148.66;5093325;28;20384;-77
2022/04/03 06:40:03;;;;;;;8.52;4.72;;;;;;;11.85;100.00;100167.41;5079161;28;20047;-77
2022/04/03 06:42:50;;;;;;;10.20;4.75;;;;;;;11.79;100.00;100156.25;5093632;28;20039;-78
2022/04/03 06:45:36;;;;;;;12.18;5.05;;;;;;;12.02;100.00;100143.28;5078481;28;20043;-78
2022/04/03 06:48:23;;;;;;;7.35;4.50;;;;;;;12.23;100.00;100145.19;5080930;28;20047;-77
2022/04/03 06:51:08;;;;;;;5.68;3.80;;;;;;;12.15;97.76;100134.06;5094635;28;20031;-76
2022/04/03 06:53:54;;;;;;;5.68;3.85;;;;;;;12.18;100.00;100134.81;5080106;28;20020;-77
2022/04/03 06:56:40;;;;;;;20.48;13.85;;;;;;;11.87;100.00;100139.38;5093044;28;20024;-78
2022/04/03 06:59:26;;;;;;;7.38;5.10;;;;;;;12.52;100.00;100143.31;5094398;28;20024;-78
2022/04/03 07:02:12;;;;;;;4.25;2.92;;;;;;;12.26;100.00;100148.56;5095167;28;20042;-77
2022/04/03 07:04:58;;;;;;;4.93;2.88;;;;;;;11.89;100.00;100163.78;5097626;28;20024;-77
2022/04/03 07:07:44;;;;;;;8.77;3.28;;;;;;;11.51;100.00;100178.97;5082568;28;20448;-78
2022/04/03 07:10:30;;;;;;;6.65;4.15;;;;;;;11.46;100.00;100184.38;5082278;28;20076;-78
2022/04/03 07:13:16;;;;;;;6.00;4.13;;;;;;;11.48;100.00;100182.53;5083649;28;20059;-76
2022/04/03 07:16:02;;;;;;;6.57;4.22;;;;;;;12.08;100.00;100182.44;5062586;28;20028;-77
2022/04/03 07:18:48;;;;;;;5.57;4.25;;;;;;;11.99;100.00;100188.88;5063225;28;20025;-76
2022/04/03 07:21:33;;;;;;;10.32;7.35;;;;;;;12.72;100.00;100182.03;5064656;28;20024;-77
2022/04/03 07:24:19;;;;;;;8.48;4.85;;;;;;;12.86;100.00;100193.78;5063092;28;20033;-77
2022/04/03 07:27:05;;;;;;;9.60;4.75;;;;;;;13.13;100.00;100195.47;5077449;28;20016;-77
2022/04/03 07:29:51;;;;;;;7.40;4.72;;;;;;;13.08;100.00;100199.16;5076395;28;20060;-78
2022/04/03 07:32:38;;;;;;;7.82;4.57;;;;;;;12.82;100.00;100193.94;5081569;28;20116;-77
2022/04/03 07:35:25;;;;;;;7.93;4.63;;;;;;;13.15;100.00;100196.25;5065695;28;20027;-78
2022/04/03 07:38:11;;;;;;;10.27;4.47;;;;;;;13.00;100.00;100191.56;5077207;28;20025;-78
2022/04/03 07:40:57;;;;;;;9.02;3.72;;;;;;;13.21;97.89;100201.31;5077531;28;20429;-78
2022/04/03 07:43:42;;;;;;;5.43;3.53;;;;;;;13.19;98.99;100197.84;5075871;28;20032;-77
2022/04/03 07:46:28;;;;;;;9.05;3.65;;;;;;;13.27;100.00;100202.84;5076475;28;20032;-77
2022/04/03 07:49:14;;;;;;;6.20;4.20;;;;;;;13.58;98.80;100193.75;5076445;28;20024;-81
2022/04/03 07:52:00;;;;;;;8.35;3.90;;;;;;;13.73;98.15;100201.09;5062768;28;20030;-81
2022/04/03 07:54:46;;;;;;;7.90;4.10;;;;;;;13.44;94.83;100201.34;5077216;28;20094;-83
2022/04/03 07:57:31;;;;;;;7.57;4.10;;;;;;;12.92;95.46;100213.75;5076782;28;20449;-81
2022/04/03 08:00:17;;;;;;;5.20;3.60;;;;;;;12.81;97.29;100216.75;5076964;28;20475;-81
2022/04/03 08:03:03;;;;;;;9.55;4.45;;;;;;;12.99;98.34;100210.84;5061594;28;20182;-81
2022/04/03 08:05:49;;;;;;;8.35;3.72;;;;;;;13.56;95.92;100214.03;5061742;28;20040;-81
2022/04/03 08:08:35;;;;;;;14.43;3.70;;;;;;;12.98;94.99;100219.66;5076561;28;20013;-81
2022/04/03 08:11:20;;;;;;;7.65;4.40;;;;;;;13.25;95.22;100229.22;5075784;28;20032;-78
2022/04/03 08:14:06;;;;;;;7.20;4.22;;;;;;;13.37;97.21;100236.66;5092896;28;20102;-78
2022/04/03 08:16:52;;;;;;;7.60;5.30;;;;;;;12.80;98.85;100245.72;5096605;28;20447;-79
2022/04/03 08:19:38;;;;;;;8.55;5.43;;;;;;;12.41;100.00;100250.50;5095321;28;20032;-79
2022/04/03 08:22:24;;;;;;;13.13;6.93;;;;;;;11.98;100.00;100251.91;5095570;28;20032;-79
2022/04/03 08:25:12;;;;;;;9.98;5.45;;;;;;;12.09;100.00;100255.91;5080468;28;20363;-79
2022/04/03 08:28:00;;;;;;;7.47;5.88;;;;;;;12.11;100.00;100248.88;5080863;28;20031;-79
2022/04/03 08:30:45;;;;;;;7.55;5.90;;;;;;;12.62;100.00;100255.06;5081114;28;20054;-79
2022/04/03 08:33:32;;;;;;;9.40;5.25;;;;;;;13.31;100.00;100249.19;5081181;28;20570;-80
2022/04/03 08:36:19;;;;;;;10.27;6.05;;;;;;;13.52;99.19;100270.34;5095223;28;20031;-80
2022/04/03 08:39:04;;;;;;;9.60;6.05;;;;;;;13.70;95.83;100279.28;5081188;28;20024;-79
2022/04/03 08:41:50;;;;;;;11.70;6.97;;;;;;;13.51;95.01;100273.84;5080949;28;20140;-79
2022/04/03 08:44:36;;;;;;;10.90;7.65;;;;;;;14.02;92.07;100268.41;5094321;28;20028;-79
2022/04/03 08:47:24;;;;;;;11.63;7.90;;;;;;;14.10;90.87;100272.47;5082033;28;20034;-77
2022/04/03 08:50:10;;;;;;;12.75;8.70;;;;;;;13.89;92.16;100273.31;5095576;28;20024;-81
2022/04/03 08:53:01;;;;;;;13.35;8.10;;;;;;;13.54;91.28;100273.75;5081053;28;20125;-80
2022/04/03 08:55:47;;;;;;;13.23;8.35;;;;;;;13.57;88.55;100291.19;5095699;28;20028;-79
2022/04/03 08:58:33;;;;;;;14.15;8.70;;;;;;;14.03;86.63;100280.69;5095902;28;20096;-79
2022/04/03 09:01:19;;;;;;;13.07;8.20;;;;;;;14.03;84.36;100280.69;5094520;28;20028;-79
2022/04/03 09:04:05;;;;;;;14.18;9.13;;;;;;;14.31;83.58;100290.09;5080933;28;20089;-80
2022/04/03 09:06:55;;;;;;;13.02;8.50;;;;;;;14.29;81.51;100297.22;5081045;28;20024;-77
2022/04/03 09:09:41;;;;;;;17.23;10.20;;;;;;;13.94;86.23;100275.75;5094874;28;20028;-79
2022/04/03 09:12:27;;;;;;;14.07;8.95;;;;;;;14.47;84.88;100291.22;5079031;28;20487;-80
2022/04/03 09:15:15;;;;;;;12.85;8.55;;;;;;;14.04;84.39;100291.16;5094604;28;20032;-80
2022/04/03 09:18:03;;;;;;;15.50;10.07;;;;;;;13.90;87.57;100306.63;5080514;28;20151;-80
2022/04/03 09:20:49;;;;;;;16.33;10.05;;;;;;;14.17;87.43;100281.00;5094272;28;20027;-80
2022/04/03 09:23:58;;;;;;;17.42;11.02;;;;;;;13.80;91.30;100301.75;5094231;28;20407;-80
2022/04/03 09:26:45;;;;;;;20.17;11.30;;;;;;;13.56;94.10;100278.97;5094264;28;20447;-81
2022/04/03 09:29:31;;;;;;;19.10;10.70;;;;;;;13.30;97.49;100292.22;5094120;28;20058;-78
2022/04/03 09:32:25;;;;;;;14.38;8.80;;;;;;;13.22;90.77;100302.97;5094496;28;20122;-80
2022/04/03 09:35:11;;;;;;;13.65;8.23;;;;;;;13.61;88.94;100305.97;5094082;28;20106;-80
2022/04/03 09:38:15;;;;;;;10.10;6.93;;;;;;;13.30;81.98;100314.09;5094109;28;20028;-80
2022/04/03 09:41:01;;;;;;;12.32;7.60;;;;;;;12.83;85.25;100309.53;5096350;27;20032;-80
2022/04/03 09:43:47;;;;;;;13.48;8.23;;;;;;;13.17;83.72;100309.31;5079976;28;20487;-80
2022/04/03 09:46:33;;;;;;;13.77;8.52;;;;;;;13.48;83.04;100326.63;5095547;28;20024;-80
2022/04/03 09:49:24;;;;;;;18.30;9.90;;;;;;;13.50;81.61;100314.25;5103360;28;20028;-80
2022/04/03 09:52:10;;;;;;;18.00;10.02;;;;;;;13.77;80.00;100315.91;5098840;28;20042;-81
2022/04/03 09:54:56;;;;;;;16.10;9.82;;;;;;;14.19;74.78;100310.78;5093964;28;20059;-79
2022/04/03 09:57:44;;;;;;;14.50;8.23;;;;;;;13.75;73.41;100324.78;5094350;28;20024;-80
2022/04/03 10:00:32;;;;;;;11.48;7.72;;;;;;;14.13;73.06;100343.50;5094090;28;20035;-81
2022/04/03 10:03:19;;;;;;;12.00;7.65;;;;;;;13.78;67.29;100328.13;5080041;28;20023;-80
2022/04/03 10:06:05;;;;;;;14.82;7.38;;;;;;;13.63;68.37;100322.59;5093384;28;20120;-79
2022/04/03 10:08:52;;;;;;;14.88;8.82;;;;;;;13.46;74.03;100338.09;5094319;28;20024;-79
2022/04/03 10:11:39;;;;;;;13.50;8.70;;;;;;;13.98;73.76;100333.53;5094123;28;20028;-80
2022/04/03 10:14:26;;;;;;;14.82;9.70;;;;;;;14.12;72.60;100340.91;5059472;28;20044;-80
2022/04/03 10:17:13;;;;;;;15.15;8.88;;;;;;;14.12;70.61;100352.28;5072726;28;20116;-80
2022/04/03 10:19:59;;;;;;;13.48;7.72;;;;;;;14.00;62.20;100352.78;5074278;28;20360;-79
2022/04/03 10:22:49;;;;;;;11.73;6.95;;;;;;;13.79;61.93;100347.44;5072678;28;20056;-79
2022/04/03 10:25:45;;;;;;;14.27;7.60;;;;;;;14.06;63.65;100343.75;5059470;28;20111;-79
2022/04/03 10:28:31;;;;;;;16.13;8.63;;;;;;;14.15;65.27;100343.44;5072475;28;20021;-79
2022/04/03 10:31:17;;;;;;;16.50;9.52;;;;;;;14.27;66.21;100343.84;5073323;28;20028;-81
2022/04/03 10:34:03;;;;;;;15.05;9.52;;;;;;;14.13;64.99;100342.63;5059504;28;20095;-81
2022/04/03 10:36:51;;;;;;;19.38;9.50;;;;;;;14.65;64.51;100339.72;5060000;28;20056;-81
2022/04/03 10:39:37;;;;;;;14.02;7.80;;;;;;;14.55;61.39;100338.38;5077445;28;20021;-80
2022/04/03 10:42:25;;;;;;;14.63;8.60;;;;;;;14.15;62.58;100354.81;5062859;28;20445;-80
2022/04/03 10:45:11;;;;;;;15.25;8.63;;;;;;;14.21;64.26;100356.41;5076381;28;20028;-79
2022/04/03 10:48:21;;;;;;;12.88;6.20;;;;;;;14.16;59.38;100351.25;5077182;28;20021;-80
2022/04/03 10:51:33;;;;;;;13.48;6.25;;;;;;;14.11;59.62;100355.00;5063647;28;20087;-80
2022/04/03 10:54:32;;;;;;;16.45;5.00;;;;;;;14.12;56.41;100354.09;5062287;28;20563;-81
2022/04/03 10:57:44;;;;;;;9.85;4.82;;;;;;;14.13;56.47;100353.16;5062919;28;20482;-81
2022/04/03 11:00:38;;;;;;;7.95;3.90;;;;;;;14.17;54.56;100360.91;5076021;28;20020;-81
2022/04/03 11:03:27;;;;;;;12.20;4.75;;;;;;;14.28;55.70;100345.56;5077056;28;20448;-80
2022/04/03 11:06:24;;;;;;;9.60;4.75;;;;;;;14.33;56.16;100358.56;5076788;28;20033;-80
2022/04/03 11:09:12;;;;;;;10.50;4.88;;;;;;;14.62;55.22;100369.72;5061471;28;20032;-80
2022/04/03 11:12:00;;;;;;;10.60;4.72;;;;;;;15.01;53.76;100369.00;5064134;28;20033;-79
2022/04/03 11:14:58;;;;;;;7.88;4.50;;;;;;;14.92;52.01;100366.75;5097270;28;20200;-80
2022/04/03 11:17:47;;;;;;;10.30;4.70;;;;;;;15.06;52.82;100369.72;5083666;28;20028;-80
2022/04/03 11:20:37;;;;;;;10.13;4.82;;;;;;;15.32;54.05;100366.84;5083226;28;20024;-79
2022/04/03 11:23:23;;;;;;;17.50;6.15;;;;;;;15.20;50.60;100372.63;5082877;28;20032;-80
2022/04/03 11:26:09;;;;;;;12.45;4.20;;;;;;;14.75;51.14;100363.03;5097047;28;20032;-80
2022/04/03 11:28:55;;;;;;;14.95;4.00;;;;;;;14.70;48.74;100370.25;5096845;28;20036;-81
2022/04/03 11:31:43;;;;;;;11.18;4.10;;;;;;;14.99;49.99;100384.06;5096434;28;20024;-80
2022/04/03 11:34:30;;;;;;;20.00;4.63;;;;;;;15.05;49.02;100373.25;5096465;28;20140;-80
2022/04/03 11:37:16;;;;;;;13.63;3.92;;;;;;;15.13;49.33;100366.75;5096771;28;20040;-80
2022/04/03 11:40:06;;;;;;;13.15;4.57;;;;;;;15.19;48.65;100376.19;5082726;28;20045;-79
2022/04/03 11:43:09;;;;;;;6.78;2.90;;;;;;;15.46;45.91;100382.97;5096223;28;20024;-80
2022/04/03 11:45:57;;;;;;;22.10;4.07;;;;;;;15.27;46.69;100389.94;5096690;28;20032;-80
2022/04/03 11:48:45;;;;;;;14.95;4.43;;;;;;;15.29;49.25;100378.38;5095450;28;20024;-80
2022/04/03 11:51:31;;;;;;;19.20;5.03;;;;;;;15.01;51.02;100390.13;5097141;28;20445;-80
2022/04/03 11:54:16;;;;;;;14.50;5.05;;;;;;;14.54;51.21;100395.50;5095996;28;20024;-79
2022/04/03 11:57:08;;;;;;;14.38;4.57;;;;;;;14.11;51.97;100416.44;5096217;28;20024;-80
2022/04/03 11:59:55;;;;;;;14.05;5.22;;;;;;;13.76;53.26;100416.88;5095809;28;20036;-80
2022/04/03 12:02:43;;;;;;;19.08;5.65;;;;;;;13.92;55.34;100414.53;5082939;28;20115;-79
2022/04/03 12:05:28;;;;;;;17.45;5.85;;;;;;;13.31;56.95;100428.09;5096891;28;20027;-79
2022/04/03 12:08:14;;;;;;;16.25;6.38;;;;;;;13.35;57.53;100425.28;5098402;28;20016;-76
2022/04/03 12:11:00;;;;;;;23.23;7.45;;;;;;;13.17;56.92;100425.03;5097322;28;20016;-80
2022/04/03 12:13:45;;;;;;;17.70;7.25;;;;;;;13.54;57.35;100423.78;5079270;28;20114;-80
2022/04/03 12:16:34;;;;;;;15.85;8.57;;;;;;;13.37;58.09;100430.50;5062425;28;20055;-80
2022/04/03 12:19:20;;;;;;;16.83;8.23;;;;;;;13.58;57.71;100425.38;5075577;28;20030;-80
2022/04/03 12:22:10;;;;;;;13.15;8.90;;;;;;;14.04;58.08;100408.84;5062621;28;20051;-79
2022/04/03 12:24:56;;;;;;;14.50;8.73;;;;;;;13.92;58.08;100406.63;5078885;28;20051;-79
2022/04/03 12:27:42;;;;;;;16.40;8.80;;;;;;;13.83;59.29;100409.63;5085211;28;20387;-80
2022/04/03 12:30:31;;;;;;;17.42;8.25;;;;;;;14.65;56.36;100401.25;5076740;28;20032;-79
2022/04/03 12:33:17;;;;;;;15.57;6.45;;;;;;;14.41;51.72;100410.09;5077235;28;20093;-79
2022/04/03 12:36:03;;;;;;;15.77;7.07;;;;;;;14.44;52.15;100411.75;5080398;28;20031;-80
2022/04/03 12:38:50;;;;;;;12.80;6.88;;;;;;;14.53;51.18;100414.03;5072679;28;20440;-80
2022/04/03 12:41:35;;;;;;;12.57;6.70;;;;;;;14.79;51.50;100414.72;5062219;28;20036;-80
2022/04/03 12:44:21;;;;;;;11.60;6.95;;;;;;;14.88;52.66;100408.25;5075743;28;20031;-80
2022/04/03 12:47:22;;;;;;;14.43;6.63;;;;;;;15.09;52.60;100422.34;5076132;28;20074;-80
2022/04/03 12:50:25;;;;;;;13.90;6.97;;;;;;;14.93;51.19;100421.22;5074841;28;20020;-80
2022/04/03 12:53:16;;;;;;;13.02;7.15;;;;;;;14.47;51.90;100391.38;5075032;28;20024;-81